createdAt,value
2023-10-31T00:00:29.873Z,1.50
2023-10-31T00:03:18.097Z,1.50
2023-10-31T00:05:46.159Z,1.50
2023-10-31T00:08:14.569Z,1.42
2023-10-31T00:10:45.958Z,1.42
2023-10-31T00:13:14.204Z,1.40
2023-10-31T00:15:42.722Z,1.40
2023-10-31T00:18:11.555Z,1.40
2023-10-31T00:20:39.534Z,1.40
2023-10-31T00:23:07.634Z,1.40
2023-10-31T00:25:35.569Z,1.40
2023-10-31T00:28:03.641Z,1.40
2023-10-31T00:30:31.789Z,1.40
2023-10-31T00:32:59.770Z,1.40
2023-10-31T00:35:32.097Z,1.40
2023-10-31T00:38:00.628Z,1.40
2023-10-31T00:40:28.761Z,1.40
2023-10-31T00:42:59.501Z,1.40
2023-10-31T00:45:27.511Z,1.40
2023-10-31T00:47:56.188Z,1.40
2023-10-31T00:50:24.306Z,1.40
2023-10-31T00:52:52.757Z,1.40
2023-10-31T00:55:21.684Z,1.40
2023-10-31T00:57:49.689Z,1.40
2023-10-31T01:00:18.608Z,1.44
2023-10-31T01:02:46.659Z,1.46
2023-10-31T01:05:14.993Z,1.44
2023-10-31T01:07:43.408Z,1.42
2023-10-31T01:10:11.723Z,1.48
2023-10-31T01:12:39.845Z,1.50
2023-10-31T01:15:09.382Z,1.50
2023-10-31T01:17:37.659Z,1.42
2023-10-31T01:20:08.649Z,1.40
2023-10-31T01:22:36.750Z,1.40
2023-10-31T01:25:05.961Z,1.40
2023-10-31T01:27:34.316Z,1.40
2023-10-31T01:30:02.286Z,1.40
2023-10-31T01:32:30.642Z,1.40
2023-10-31T01:34:58.798Z,1.40
2023-10-31T01:37:29.069Z,1.40
2023-10-31T01:39:56.969Z,1.40
2023-10-31T01:42:25.341Z,1.40
2023-10-31T01:44:53.213Z,1.40
2023-10-31T01:47:21.118Z,1.40
2023-10-31T01:49:49.287Z,1.46
2023-10-31T01:52:18.010Z,1.44
2023-10-31T01:54:47.279Z,1.40
2023-10-31T01:57:16.376Z,1.40
2023-10-31T01:59:46.813Z,1.40
2023-10-31T02:02:18.883Z,1.44
2023-10-31T02:04:49.284Z,1.48
2023-10-31T02:07:17.261Z,1.46
2023-10-31T02:09:46.202Z,1.48
2023-10-31T02:12:34.034Z,1.50
2023-10-31T02:15:03.858Z,1.50
2023-10-31T02:17:33.839Z,1.50
2023-10-31T02:20:02.816Z,1.46
2023-10-31T02:22:31.294Z,1.50
2023-10-31T02:24:59.274Z,1.50
2023-10-31T02:27:27.213Z,1.50
2023-10-31T02:29:55.245Z,1.50
2023-10-31T02:32:23.363Z,1.50
2023-10-31T02:34:51.764Z,1.50
2023-10-31T02:37:19.698Z,1.50
2023-10-31T02:39:47.784Z,1.50
2023-10-31T02:42:15.768Z,1.50
2023-10-31T02:44:43.990Z,1.50
2023-10-31T02:47:12.029Z,1.50
2023-10-31T02:49:40.264Z,1.50
2023-10-31T02:52:08.815Z,1.50
2023-10-31T02:54:40.192Z,1.50
2023-10-31T02:57:10.531Z,1.50
2023-10-31T02:59:42.050Z,1.50
2023-10-31T03:02:12.739Z,1.50
2023-10-31T03:04:41.058Z,1.50
2023-10-31T03:07:09.322Z,1.50
2023-10-31T03:09:37.413Z,1.50
2023-10-31T03:12:06.075Z,1.50
2023-10-31T03:14:34.852Z,1.50
2023-10-31T03:17:05.152Z,1.50
2023-10-31T03:19:33.108Z,1.50
2023-10-31T03:22:01.335Z,1.50
2023-10-31T03:24:29.901Z,1.50
2023-10-31T03:26:59.266Z,1.50
2023-10-31T03:29:28.371Z,1.50
2023-10-31T03:31:57.581Z,1.50
2023-10-31T03:34:25.499Z,1.50
2023-10-31T03:36:53.407Z,1.50
2023-10-31T03:39:21.172Z,1.50
2023-10-31T03:41:49.099Z,1.50
2023-10-31T03:44:16.938Z,1.50
2023-10-31T03:46:45.306Z,1.50
2023-10-31T03:49:13.255Z,1.50
2023-10-31T03:51:41.442Z,1.50
2023-10-31T03:54:09.847Z,1.50
2023-10-31T03:56:44.921Z,1.50
2023-10-31T03:59:12.815Z,1.50
2023-10-31T04:01:41.760Z,1.50
2023-10-31T04:04:09.704Z,1.50
2023-10-31T04:06:41.108Z,1.50
2023-10-31T04:09:09.302Z,1.50
2023-10-31T04:11:37.832Z,1.50
2023-10-31T04:14:07.185Z,1.50
2023-10-31T04:16:46.923Z,1.50
2023-10-31T04:19:15.043Z,1.50
2023-10-31T04:21:43.178Z,1.50
2023-10-31T04:24:11.747Z,1.50
2023-10-31T04:26:42.740Z,1.52
2023-10-31T04:29:10.593Z,1.50
2023-10-31T04:31:44.071Z,1.50
2023-10-31T04:34:12.549Z,1.54
2023-10-31T04:36:41.526Z,1.54
2023-10-31T04:39:10.238Z,1.50
2023-10-31T04:41:39.039Z,1.50
2023-10-31T04:44:08.183Z,1.50
2023-10-31T04:46:36.752Z,1.54
2023-10-31T04:49:06.155Z,1.58
2023-10-31T04:51:42.146Z,1.58
2023-10-31T04:54:10.328Z,1.60
2023-10-31T04:56:38.511Z,1.60
2023-10-31T04:59:06.830Z,1.60
2023-10-31T05:01:34.785Z,1.60
2023-10-31T05:04:11.418Z,1.60
2023-10-31T05:06:41.642Z,1.60
2023-10-31T05:09:11.669Z,1.60
2023-10-31T05:11:40.330Z,1.60
2023-10-31T05:14:12.033Z,1.60
2023-10-31T05:16:44.583Z,1.60
2023-10-31T05:19:13.283Z,1.60
2023-10-31T05:21:41.567Z,1.60
2023-10-31T05:24:09.918Z,1.60
2023-10-31T05:26:38.785Z,1.60
2023-10-31T05:29:06.689Z,1.60
2023-10-31T05:31:34.983Z,1.60
2023-10-31T05:34:05.003Z,1.60
2023-10-31T05:36:32.930Z,1.60
2023-10-31T05:39:00.852Z,1.60
2023-10-31T05:41:31.207Z,1.60
2023-10-31T05:43:58.987Z,1.60
2023-10-31T05:46:29.171Z,1.60
2023-10-31T05:48:57.396Z,1.60
2023-10-31T05:51:27.097Z,1.60
2023-10-31T05:53:55.190Z,1.58
2023-10-31T05:56:23.714Z,1.60
2023-10-31T05:58:51.596Z,1.60
2023-10-31T06:01:19.977Z,1.60
2023-10-31T06:03:47.901Z,1.56
2023-10-31T06:06:15.693Z,1.60
2023-10-31T06:08:44.209Z,1.60
2023-10-31T06:11:14.210Z,1.60
2023-10-31T06:13:42.536Z,1.60
2023-10-31T06:16:10.625Z,1.52
2023-10-31T06:18:41.419Z,1.60
2023-10-31T06:21:12.494Z,1.60
2023-10-31T06:23:40.705Z,1.60
2023-10-31T06:26:08.944Z,1.60
2023-10-31T06:28:48.490Z,1.60
2023-10-31T06:31:27.152Z,1.60
2023-10-31T06:33:57.034Z,1.62
2023-10-31T06:36:25.056Z,1.60
2023-10-31T06:38:52.888Z,1.60
2023-10-31T06:41:20.778Z,1.60
2023-10-31T06:43:48.639Z,1.66
2023-10-31T06:46:17.165Z,1.66
2023-10-31T06:48:45.124Z,1.70
2023-10-31T06:51:13.056Z,1.70
2023-10-31T06:53:41.830Z,1.70
2023-10-31T06:56:11.310Z,1.70
2023-10-31T06:58:41.381Z,1.70
2023-10-31T07:01:10.671Z,1.70
2023-10-31T07:03:39.523Z,1.70
2023-10-31T07:06:08.411Z,1.70
2023-10-31T07:08:36.278Z,1.80
2023-10-31T07:11:07.249Z,1.80
2023-10-31T07:13:35.222Z,1.80
2023-10-31T07:16:06.170Z,1.80
2023-10-31T07:18:34.049Z,1.80
2023-10-31T07:21:02.730Z,1.80
2023-10-31T07:23:30.519Z,1.88
2023-10-31T07:25:58.657Z,1.90
2023-10-31T07:28:26.646Z,1.90
2023-10-31T07:30:54.654Z,1.90
2023-10-31T07:33:25.939Z,1.90
2023-10-31T07:35:53.780Z,1.90
2023-10-31T07:38:22.427Z,1.90
2023-10-31T07:40:50.775Z,1.92
2023-10-31T07:43:20.883Z,2.00
2023-10-31T07:45:49.236Z,2.00
2023-10-31T07:48:17.449Z,2.00
2023-10-31T07:50:45.266Z,2.00
2023-10-31T07:53:13.147Z,2.00
2023-10-31T07:55:42.522Z,2.00
2023-10-31T07:58:14.020Z,2.00
2023-10-31T08:00:42.242Z,2.00
2023-10-31T08:03:10.326Z,2.00
2023-10-31T08:05:42.800Z,2.02
2023-10-31T08:08:10.875Z,2.10
2023-10-31T08:10:40.882Z,2.10
2023-10-31T08:13:08.812Z,2.10
2023-10-31T08:15:40.341Z,2.10
2023-10-31T08:18:08.272Z,2.10
2023-10-31T08:20:38.990Z,2.10
2023-10-31T08:23:08.281Z,2.10
2023-10-31T08:25:36.323Z,2.10
2023-10-31T08:28:07.486Z,2.10
2023-10-31T08:30:35.681Z,2.16
2023-10-31T08:33:03.645Z,2.12
2023-10-31T08:35:32.606Z,2.20
2023-10-31T08:38:03.599Z,2.20
2023-10-31T08:40:34.952Z,2.20
2023-10-31T08:43:05.615Z,2.20
2023-10-31T08:45:34.941Z,2.20
2023-10-31T08:48:04.693Z,2.20
2023-10-31T08:50:32.849Z,2.20
2023-10-31T08:53:02.851Z,2.30
2023-10-31T08:55:31.864Z,2.30
2023-10-31T08:58:01.694Z,2.30
2023-10-31T09:00:30.198Z,2.30
2023-10-31T09:02:58.323Z,2.30
2023-10-31T09:05:27.151Z,2.30
2023-10-31T09:07:58.050Z,2.30
2023-10-31T09:10:26.433Z,2.40
2023-10-31T09:12:54.484Z,2.40
2023-10-31T09:15:22.798Z,2.40
2023-10-31T09:17:51.453Z,2.40
2023-10-31T09:20:19.944Z,2.40
2023-10-31T09:22:49.380Z,2.40
2023-10-31T09:25:17.739Z,2.40
2023-10-31T09:27:45.959Z,2.40
2023-10-31T09:30:14.191Z,2.40
2023-10-31T09:32:42.241Z,2.40
2023-10-31T09:35:11.043Z,2.40
2023-10-31T09:37:40.759Z,2.40
2023-10-31T09:40:09.953Z,2.40
2023-10-31T09:42:38.121Z,2.40
2023-10-31T09:45:09.647Z,2.40
2023-10-31T09:47:37.797Z,2.40
2023-10-31T09:50:07.040Z,2.42
2023-10-31T09:52:38.203Z,2.50
2023-10-31T09:55:09.832Z,2.50
2023-10-31T09:57:38.753Z,2.50
2023-10-31T10:00:08.165Z,2.50
2023-10-31T10:02:36.486Z,2.50
2023-10-31T10:05:07.521Z,2.50
2023-10-31T10:07:38.916Z,2.50
2023-10-31T10:10:12.017Z,2.50
2023-10-31T10:12:44.853Z,2.50
2023-10-31T10:15:13.444Z,2.50
2023-10-31T10:17:51.632Z,2.50
2023-10-31T10:20:23.674Z,2.50
2023-10-31T10:22:52.623Z,2.50
2023-10-31T10:25:20.783Z,2.50
2023-10-31T10:27:51.498Z,2.50
2023-10-31T10:30:19.661Z,2.50
2023-10-31T10:32:52.608Z,2.50
2023-10-31T10:35:20.604Z,2.50
2023-10-31T10:38:06.516Z,2.48
2023-10-31T10:40:36.103Z,2.44
2023-10-31T10:43:09.442Z,2.40
2023-10-31T10:45:45.125Z,2.40
2023-10-31T10:48:18.102Z,2.44
2023-10-31T10:50:53.031Z,2.50
2023-10-31T10:53:28.086Z,2.50
2023-10-31T10:56:07.642Z,2.50
2023-10-31T10:59:06.993Z,2.50
2023-10-31T11:01:39.523Z,2.60
2023-10-31T11:04:09.345Z,2.60
2023-10-31T11:06:40.475Z,2.70
2023-10-31T11:09:12.717Z,2.64
2023-10-31T11:11:42.078Z,2.68
2023-10-31T11:14:11.324Z,2.70
2023-10-31T11:16:49.422Z,2.74
2023-10-31T11:19:18.109Z,2.80
2023-10-31T11:22:03.542Z,2.80
2023-10-31T11:24:38.982Z,2.80
2023-10-31T11:27:09.035Z,2.70
2023-10-31T11:29:38.831Z,2.72
2023-10-31T11:32:13.460Z,2.80
2023-10-31T11:34:43.647Z,2.88
2023-10-31T11:37:29.034Z,2.90
2023-10-31T11:40:22.141Z,2.90
2023-10-31T11:42:58.060Z,2.88
2023-10-31T11:45:48.997Z,2.80
2023-10-31T11:48:17.766Z,2.80
2023-10-31T11:50:45.695Z,2.80
2023-10-31T11:53:18.259Z,2.80
2023-10-31T11:55:49.243Z,2.80
2023-10-31T11:58:32.236Z,2.90
2023-10-31T12:01:08.181Z,2.90
2023-10-31T12:03:48.806Z,2.98
2023-10-31T12:06:18.570Z,2.90
2023-10-31T12:08:49.732Z,2.90
2023-10-31T12:11:23.958Z,2.90
2023-10-31T12:14:02.010Z,2.90
2023-10-31T12:16:34.255Z,2.90
2023-10-31T12:19:05.254Z,2.92
2023-10-31T12:21:50.007Z,2.94
2023-10-31T12:24:19.943Z,3.00
2023-10-31T12:26:48.731Z,3.00
2023-10-31T12:29:20.787Z,3.00
2023-10-31T12:31:50.051Z,2.90
2023-10-31T12:34:20.490Z,2.94
2023-10-31T12:36:52.414Z,2.90
2023-10-31T12:39:27.937Z,2.90
2023-10-31T12:41:59.506Z,2.90
2023-10-31T12:44:29.566Z,2.90
2023-10-31T12:46:58.064Z,2.90
2023-10-31T12:49:26.515Z,2.90
2023-10-31T12:52:22.447Z,2.90
2023-10-31T12:54:50.478Z,2.90
2023-10-31T12:57:19.306Z,3.00
2023-10-31T12:59:48.750Z,3.00
2023-10-31T13:02:22.728Z,3.00
2023-10-31T13:04:50.911Z,3.00
2023-10-31T13:07:30.964Z,3.00
2023-10-31T13:10:00.978Z,3.00
2023-10-31T13:12:31.796Z,3.02
2023-10-31T13:15:02.376Z,3.02
2023-10-31T13:17:32.481Z,3.08
2023-10-31T13:20:00.890Z,3.00
2023-10-31T13:22:29.269Z,3.00
2023-10-31T13:24:57.284Z,2.98
2023-10-31T13:27:27.373Z,2.90
2023-10-31T13:29:55.496Z,2.90
2023-10-31T13:32:23.411Z,2.90
2023-10-31T13:34:51.333Z,2.90
2023-10-31T13:37:19.548Z,2.80
2023-10-31T13:39:48.539Z,2.70
2023-10-31T13:42:19.371Z,2.70
2023-10-31T13:44:47.221Z,2.70
2023-10-31T13:47:15.708Z,2.76
2023-10-31T13:49:43.588Z,2.72
2023-10-31T13:52:11.527Z,2.70
2023-10-31T13:54:41.865Z,2.72
2023-10-31T13:57:10.067Z,2.70
2023-10-31T13:59:42.332Z,2.70
2023-10-31T14:02:10.576Z,2.70
2023-10-31T14:04:40.361Z,2.72
2023-10-31T14:07:08.335Z,2.76
2023-10-31T14:09:36.139Z,2.70
2023-10-31T14:12:09.234Z,2.70
2023-10-31T14:14:37.182Z,2.60
2023-10-31T14:17:06.143Z,2.60
2023-10-31T14:19:34.582Z,2.60
2023-10-31T14:22:03.937Z,2.62
2023-10-31T14:24:33.067Z,2.60
2023-10-31T14:27:01.663Z,2.50
2023-10-31T14:29:29.515Z,2.50
2023-10-31T14:31:58.853Z,2.50
2023-10-31T14:34:27.205Z,2.50
2023-10-31T14:36:55.053Z,2.48
2023-10-31T14:39:22.938Z,2.50
2023-10-31T14:41:51.164Z,2.50
2023-10-31T14:44:19.646Z,2.50
2023-10-31T14:46:49.828Z,2.50
2023-10-31T14:49:17.997Z,2.50
2023-10-31T14:51:46.231Z,2.50
2023-10-31T14:54:15.172Z,2.50
2023-10-31T14:56:43.682Z,2.54
2023-10-31T14:59:12.110Z,2.50
2023-10-31T15:01:40.144Z,2.50
2023-10-31T15:04:08.147Z,2.60
2023-10-31T15:06:37.415Z,2.60
2023-10-31T15:09:05.699Z,2.60
2023-10-31T15:11:33.588Z,2.60
2023-10-31T15:14:03.636Z,2.50
2023-10-31T15:16:31.918Z,2.50
2023-10-31T15:19:00.599Z,2.50
2023-10-31T15:21:29.390Z,2.50
2023-10-31T15:23:58.855Z,2.50
2023-10-31T15:26:27.996Z,2.40
2023-10-31T15:28:55.990Z,2.40
2023-10-31T15:31:26.428Z,2.40
2023-10-31T15:33:54.711Z,2.40
2023-10-31T15:36:22.805Z,2.36
2023-10-31T15:38:52.401Z,2.40
2023-10-31T15:41:23.761Z,2.30
2023-10-31T15:43:51.996Z,2.30
2023-10-31T15:46:29.267Z,2.20
2023-10-31T15:48:58.826Z,2.10
2023-10-31T15:51:26.674Z,2.10
2023-10-31T15:53:55.905Z,2.10
2023-10-31T15:56:23.860Z,2.10
2023-10-31T15:58:52.102Z,2.00
2023-10-31T16:01:19.922Z,2.00
2023-10-31T16:03:50.213Z,2.00
2023-10-31T16:06:18.494Z,2.02
2023-10-31T16:08:46.449Z,2.10
2023-10-31T16:11:14.342Z,2.14
2023-10-31T16:13:42.589Z,2.18
2023-10-31T16:16:11.865Z,2.10
2023-10-31T16:18:40.219Z,2.10
2023-10-31T16:21:22.211Z,2.10
2023-10-31T16:23:53.926Z,2.10
2023-10-31T16:26:21.873Z,2.10
2023-10-31T16:28:50.943Z,2.10
2023-10-31T16:31:22.131Z,2.10
2023-10-31T16:33:50.069Z,2.10
2023-10-31T16:36:19.843Z,2.10
2023-10-31T16:38:48.009Z,2.10
2023-10-31T16:41:15.943Z,2.10
2023-10-31T16:43:44.608Z,2.10
2023-10-31T16:46:14.494Z,2.10
2023-10-31T16:48:45.626Z,2.02
2023-10-31T16:51:21.864Z,2.10
2023-10-31T16:53:50.079Z,2.10
2023-10-31T16:56:18.751Z,2.02
2023-10-31T16:58:48.184Z,2.00
2023-10-31T17:01:16.505Z,2.00
2023-10-31T17:03:44.640Z,2.00
2023-10-31T17:06:15.420Z,2.00
2023-10-31T17:08:47.122Z,2.00
2023-10-31T17:11:15.160Z,2.00
2023-10-31T17:13:43.689Z,2.00
2023-10-31T17:16:12.410Z,2.00
2023-10-31T17:18:41.922Z,2.00
2023-10-31T17:21:09.790Z,2.00
2023-10-31T17:23:37.604Z,2.00
2023-10-31T17:26:06.804Z,2.10
2023-10-31T17:28:41.726Z,2.00
2023-10-31T17:31:09.872Z,2.00
2023-10-31T17:33:41.478Z,2.00
2023-10-31T17:36:12.178Z,1.90
2023-10-31T17:38:42.487Z,1.80
2023-10-31T17:41:11.112Z,1.80
2023-10-31T17:43:42.578Z,1.80
2023-10-31T17:46:10.586Z,1.80
2023-10-31T17:48:38.785Z,1.80
2023-10-31T17:51:07.444Z,1.70
2023-10-31T17:53:37.450Z,1.64
2023-10-31T17:56:07.434Z,1.60
2023-10-31T17:58:36.733Z,1.58
2023-10-31T18:01:05.082Z,1.50
2023-10-31T18:03:33.613Z,1.50
2023-10-31T18:06:01.513Z,1.50
2023-10-31T18:08:30.221Z,1.60
2023-10-31T18:10:58.765Z,1.60
2023-10-31T18:13:27.169Z,1.60
2023-10-31T18:15:54.988Z,1.60
2023-10-31T18:18:23.097Z,1.68
2023-10-31T18:20:53.553Z,1.70
2023-10-31T18:23:24.709Z,1.68
2023-10-31T18:25:53.268Z,1.68
2023-10-31T18:28:21.285Z,1.60
2023-10-31T18:30:49.722Z,1.58
2023-10-31T18:33:17.584Z,1.58
2023-10-31T18:35:47.252Z,1.60
2023-10-31T18:38:15.276Z,1.60
2023-10-31T18:40:43.900Z,1.60
2023-10-31T18:43:11.664Z,1.60
2023-10-31T18:45:39.711Z,1.58
2023-10-31T18:48:07.725Z,1.60
2023-10-31T18:50:36.012Z,1.60
2023-10-31T18:53:04.641Z,1.60
2023-10-31T18:55:33.025Z,1.60
2023-10-31T18:58:00.826Z,1.70
2023-10-31T19:00:28.750Z,1.70
2023-10-31T19:02:58.590Z,1.70
2023-10-31T19:05:27.585Z,1.70
2023-10-31T19:07:55.470Z,1.70
2023-10-31T19:10:23.649Z,1.68
2023-10-31T19:12:53.842Z,1.70
2023-10-31T19:15:22.248Z,1.70
2023-10-31T19:17:50.063Z,1.70
2023-10-31T19:20:19.689Z,1.70
2023-10-31T19:22:48.202Z,1.70
2023-10-31T19:25:16.577Z,1.70
2023-10-31T19:27:44.538Z,1.70
2023-10-31T19:30:13.422Z,1.70
2023-10-31T19:32:42.583Z,1.70
2023-10-31T19:35:14.464Z,1.70
2023-10-31T19:37:45.465Z,1.70
2023-10-31T19:40:18.667Z,1.70
2023-10-31T19:42:48.145Z,1.70
2023-10-31T19:45:16.213Z,1.80
2023-10-31T19:47:44.662Z,1.80
2023-10-31T19:50:14.383Z,1.80
2023-10-31T19:52:42.899Z,1.80
2023-10-31T19:55:10.840Z,1.80
2023-10-31T19:57:42.210Z,1.80
2023-10-31T20:00:11.121Z,1.80
2023-10-31T20:02:39.301Z,1.80
2023-10-31T20:05:08.381Z,1.80
2023-10-31T20:07:36.314Z,1.80
2023-10-31T20:10:15.922Z,1.80
2023-10-31T20:12:43.981Z,1.80
2023-10-31T20:15:12.622Z,1.80
2023-10-31T20:17:40.559Z,1.80
2023-10-31T20:20:10.726Z,1.80
2023-10-31T20:22:40.351Z,1.80
2023-10-31T20:25:09.762Z,1.78
2023-10-31T20:27:37.651Z,1.76
2023-10-31T20:30:07.198Z,1.70
2023-10-31T20:32:38.064Z,1.70
2023-10-31T20:35:08.434Z,1.70
2023-10-31T20:37:37.557Z,1.70
2023-10-31T20:40:08.951Z,1.70
2023-10-31T20:42:36.714Z,1.70
2023-10-31T20:45:05.754Z,1.68
2023-10-31T20:47:33.913Z,1.70
2023-10-31T20:50:02.232Z,1.60
2023-10-31T20:52:32.078Z,1.60
2023-10-31T20:55:01.261Z,1.52
2023-10-31T20:57:29.597Z,1.50
2023-10-31T20:59:58.721Z,1.50
2023-10-31T21:02:27.288Z,1.50
2023-10-31T21:04:56.652Z,1.50
2023-10-31T21:07:25.231Z,1.50
2023-10-31T21:09:53.150Z,1.50
2023-10-31T21:12:22.564Z,1.52
2023-10-31T21:14:52.538Z,1.50
2023-10-31T21:17:20.929Z,1.56
2023-10-31T21:19:48.995Z,1.60
2023-10-31T21:22:16.863Z,1.60
2023-10-31T21:24:44.960Z,1.60
2023-10-31T21:27:13.117Z,1.60
2023-10-31T21:29:44.864Z,1.60
2023-10-31T21:32:13.084Z,1.60
2023-10-31T21:34:41.205Z,1.60
2023-10-31T21:37:09.648Z,1.60
2023-10-31T21:39:40.096Z,1.56
2023-10-31T21:42:08.444Z,1.50
2023-10-31T21:44:36.904Z,1.50
2023-10-31T21:47:06.162Z,1.50
2023-10-31T21:49:34.458Z,1.50
2023-10-31T21:52:03.211Z,1.50
2023-10-31T21:54:32.655Z,1.50
2023-10-31T21:57:00.561Z,1.50
2023-10-31T21:59:30.055Z,1.50
2023-10-31T22:01:59.318Z,1.50
2023-10-31T22:04:27.593Z,1.50
2023-10-31T22:06:55.554Z,1.50
2023-10-31T22:09:23.485Z,1.50
2023-10-31T22:11:55.933Z,1.50
2023-10-31T22:14:26.434Z,1.50
2023-10-31T22:16:54.388Z,1.50
2023-10-31T22:19:22.702Z,1.50
2023-10-31T22:21:50.977Z,1.60
2023-10-31T22:24:19.591Z,1.60
2023-10-31T22:26:50.051Z,1.60
2023-10-31T22:29:19.106Z,1.60
2023-10-31T22:31:47.322Z,1.60
2023-10-31T22:34:15.650Z,1.70
2023-10-31T22:36:43.912Z,1.70
2023-10-31T22:39:11.645Z,1.70
2023-10-31T22:41:42.158Z,1.70
2023-10-31T22:44:10.179Z,1.70
2023-10-31T22:46:45.022Z,1.60
2023-10-31T22:49:13.917Z,1.60
2023-10-31T22:51:41.872Z,1.60
2023-10-31T22:54:09.692Z,1.60
2023-10-31T22:56:39.943Z,1.60
2023-10-31T22:59:08.570Z,1.50
2023-10-31T23:01:36.613Z,1.50
2023-10-31T23:04:05.741Z,1.50
2023-10-31T23:06:34.044Z,1.40
2023-10-31T23:09:08.667Z,1.38
2023-10-31T23:11:39.927Z,1.40
2023-10-31T23:14:07.825Z,1.30
2023-10-31T23:16:35.866Z,1.30
2023-10-31T23:19:04.920Z,1.30
2023-10-31T23:21:32.774Z,1.30
2023-10-31T23:24:02.614Z,1.20
2023-10-31T23:26:30.583Z,1.20
2023-10-31T23:28:59.226Z,1.12
2023-10-31T23:31:27.194Z,1.10
2023-10-31T23:33:55.146Z,1.10
2023-10-31T23:36:23.207Z,1.10
2023-10-31T23:38:52.129Z,1.10
2023-10-31T23:41:20.054Z,1.12
2023-10-31T23:43:48.004Z,1.18
2023-10-31T23:46:15.993Z,1.20
2023-10-31T23:48:45.193Z,1.20
2023-10-31T23:51:18.771Z,1.20
2023-10-31T23:53:46.705Z,1.20
2023-10-31T23:56:14.672Z,1.20
2023-10-31T23:58:42.646Z,1.18
